createdAt,value
2023-05-02T00:00:45.411Z,74.70
2023-05-02T00:03:12.985Z,75.95
2023-05-02T00:05:40.695Z,71.67
2023-05-02T00:08:08.257Z,75.74
2023-05-02T00:10:35.715Z,75.83
2023-05-02T00:13:04.626Z,75.74
2023-05-02T00:15:32.200Z,74.07
2023-05-02T00:18:00.342Z,76.29
2023-05-02T00:20:28.002Z,77.23
2023-05-02T00:22:56.369Z,73.54
2023-05-02T00:25:23.878Z,76.84
2023-05-02T00:27:51.665Z,75.34
2023-05-02T00:30:21.266Z,78.02
2023-05-02T00:32:48.807Z,76.94
2023-05-02T00:35:16.286Z,77.96
2023-05-02T00:37:43.731Z,77.88
2023-05-02T00:40:11.654Z,76.08
2023-05-02T00:42:39.169Z,80.10
2023-05-02T00:45:07.180Z,76.32
2023-05-02T00:47:36.200Z,77.29
2023-05-02T00:50:05.493Z,78.77
2023-05-02T00:52:32.959Z,76.61
2023-05-02T00:55:00.752Z,76.81
2023-05-02T00:57:28.261Z,80.18
2023-05-02T00:59:55.790Z,76.81
2023-05-02T01:05:22.675Z,77.71
2023-05-02T01:07:55.632Z,80.94
2023-05-02T01:10:25.048Z,75.60
2023-05-02T01:12:55.678Z,81.50
2023-05-02T01:15:23.788Z,79.62
2023-05-02T01:17:51.915Z,80.67
2023-05-02T01:20:20.819Z,76.88
2023-05-02T01:22:48.349Z,77.33
2023-05-02T01:25:20.428Z,81.53
2023-05-02T01:27:49.301Z,80.63
2023-05-02T01:30:19.011Z,81.59
2023-05-02T01:32:46.903Z,79.29
2023-05-02T01:35:15.222Z,76.84
2023-05-02T01:37:42.682Z,77.49
2023-05-02T01:40:10.634Z,79.74
2023-05-02T01:42:38.234Z,79.97
2023-05-02T01:45:06.183Z,79.53
2023-05-02T01:47:36.721Z,76.08
2023-05-02T01:50:04.684Z,83.21
2023-05-02T01:52:32.148Z,81.76
2023-05-02T01:54:59.753Z,79.08
2023-05-02T01:57:27.299Z,79.63
2023-05-02T01:59:54.794Z,77.71
2023-05-02T02:02:22.347Z,81.20
2023-05-02T02:04:51.337Z,84.10
2023-05-02T02:07:18.860Z,81.25
2023-05-02T02:09:46.334Z,78.00
2023-05-02T02:12:14.271Z,81.41
2023-05-02T02:14:43.063Z,82.73
2023-05-02T02:17:13.335Z,83.00
2023-05-02T02:19:41.135Z,78.68
2023-05-02T02:22:10.059Z,83.26
2023-05-02T02:24:37.782Z,80.64
2023-05-02T02:27:05.348Z,77.77
2023-05-02T02:29:32.852Z,81.40
2023-05-02T02:32:00.346Z,76.68
2023-05-02T02:34:27.921Z,77.00
2023-05-02T02:36:56.734Z,78.87
2023-05-02T02:39:29.475Z,79.79
2023-05-02T02:42:00.436Z,77.52
2023-05-02T02:44:29.583Z,80.08
2023-05-02T02:47:01.618Z,79.51
2023-05-02T02:49:32.754Z,82.84
2023-05-02T02:52:03.599Z,77.52
2023-05-02T02:54:33.365Z,74.39
2023-05-02T02:57:03.254Z,74.61
2023-05-02T02:59:31.305Z,74.18
2023-05-02T03:02:02.650Z,75.56
2023-05-02T03:04:30.937Z,76.42
2023-05-02T03:06:58.444Z,73.57
2023-05-02T03:09:28.109Z,73.44
2023-05-02T03:11:57.012Z,74.50
2023-05-02T03:14:24.679Z,76.13
2023-05-02T03:16:52.188Z,72.54
2023-05-02T03:19:19.602Z,74.15
2023-05-02T03:21:47.183Z,74.92
2023-05-02T03:24:17.792Z,74.23
2023-05-02T03:26:47.044Z,74.81
2023-05-02T03:29:15.973Z,74.07
2023-05-02T03:31:43.506Z,75.35
2023-05-02T03:34:11.016Z,74.76
2023-05-02T03:36:38.561Z,76.87
2023-05-02T03:39:06.639Z,76.93
2023-05-02T03:41:34.104Z,75.54
2023-05-02T03:44:01.679Z,76.33
2023-05-02T03:46:30.790Z,74.25
2023-05-02T03:48:58.666Z,73.47
2023-05-02T03:51:26.687Z,75.16
2023-05-02T03:53:54.775Z,74.86
2023-05-02T03:56:22.310Z,74.93
2023-05-02T03:58:49.866Z,73.52
2023-05-02T04:01:17.564Z,74.84
2023-05-02T04:03:46.825Z,73.98
2023-05-02T04:06:14.667Z,73.14
2023-05-02T04:08:42.526Z,73.99
2023-05-02T04:11:10.076Z,72.74
2023-05-02T04:13:37.575Z,72.08
2023-05-02T04:16:05.572Z,72.74
2023-05-02T04:18:33.080Z,76.58
2023-05-02T04:21:02.237Z,77.43
2023-05-02T04:23:29.711Z,72.76
2023-05-02T04:25:57.217Z,78.01
2023-05-02T04:28:24.748Z,74.83
2023-05-02T04:30:52.414Z,73.29
2023-05-02T04:33:19.950Z,76.13
2023-05-02T04:35:47.472Z,75.42
2023-05-02T04:38:16.425Z,75.10
2023-05-02T04:40:44.266Z,76.61
2023-05-02T04:43:11.858Z,73.96
2023-05-02T04:45:39.417Z,74.99
2023-05-02T04:48:07.248Z,77.42
2023-05-02T04:50:34.763Z,75.10
2023-05-02T04:53:02.581Z,75.78
2023-05-02T04:55:31.523Z,73.23
2023-05-02T04:57:59.264Z,74.74
2023-05-02T05:00:26.742Z,73.71
2023-05-02T05:02:54.367Z,72.60
2023-05-02T05:05:21.977Z,74.36
2023-05-02T05:07:49.444Z,71.87
2023-05-02T05:10:16.959Z,72.05
2023-05-02T05:12:46.295Z,72.86
2023-05-02T05:15:13.803Z,74.61
2023-05-02T05:17:41.959Z,72.63
2023-05-02T05:20:10.189Z,71.42
2023-05-02T05:22:39.615Z,70.97
2023-05-02T05:25:07.559Z,69.68
2023-05-02T05:27:35.091Z,71.04
2023-05-02T05:30:04.129Z,70.82
2023-05-02T05:32:31.663Z,71.06
2023-05-02T05:34:59.179Z,71.00
2023-05-02T05:37:26.762Z,71.46
2023-05-02T05:39:54.217Z,72.47
2023-05-02T05:42:21.692Z,71.00
2023-05-02T05:44:49.240Z,71.23
2023-05-02T05:47:22.038Z,71.21
2023-05-02T05:49:49.790Z,73.35
2023-05-02T05:52:17.263Z,72.24
2023-05-02T05:54:44.788Z,70.60
2023-05-02T05:57:12.287Z,71.44
2023-05-02T05:59:39.773Z,72.50
2023-05-02T06:02:07.559Z,72.35
2023-05-02T06:04:36.560Z,69.86
2023-05-02T06:07:04.057Z,69.92
2023-05-02T06:09:31.531Z,69.82
2023-05-02T06:11:58.989Z,69.54
2023-05-02T06:14:26.741Z,70.07
2023-05-02T06:16:54.246Z,70.39
2023-05-02T06:19:21.709Z,70.65
2023-05-02T06:21:50.609Z,69.68
2023-05-02T06:24:18.136Z,69.99
2023-05-02T06:26:46.268Z,70.09
2023-05-02T06:29:13.782Z,70.35
2023-05-02T06:31:41.297Z,71.33
2023-05-02T06:34:09.069Z,70.05
2023-05-02T06:36:36.623Z,69.52
2023-05-02T06:39:05.569Z,70.88
2023-05-02T06:41:33.128Z,69.70
2023-05-02T06:44:00.767Z,70.75
2023-05-02T06:46:30.052Z,68.92
2023-05-02T06:49:00.628Z,70.76
2023-05-02T06:51:28.259Z,69.48
2023-05-02T06:53:55.808Z,69.00
2023-05-02T06:56:25.533Z,68.78
2023-05-02T06:58:53.009Z,67.79
2023-05-02T07:01:20.600Z,68.67
2023-05-02T07:03:48.365Z,69.33
2023-05-02T07:06:16.118Z,69.44
2023-05-02T07:08:43.623Z,68.32
2023-05-02T07:11:11.119Z,67.88
2023-05-02T07:13:39.991Z,68.47
2023-05-02T07:16:08.115Z,67.52
2023-05-02T07:18:36.491Z,68.09
2023-05-02T07:21:03.978Z,67.59
2023-05-02T07:23:31.551Z,67.82
2023-05-02T07:25:59.003Z,67.33
2023-05-02T07:28:26.468Z,67.47
2023-05-02T07:30:55.352Z,67.36
2023-05-02T07:33:23.795Z,67.08
2023-05-02T07:35:51.378Z,66.65
2023-05-02T07:38:19.235Z,66.04
2023-05-02T07:40:47.046Z,65.98
2023-05-02T07:43:15.925Z,65.93
2023-05-02T07:45:43.420Z,65.95
2023-05-02T07:48:12.461Z,66.25
2023-05-02T07:50:39.949Z,65.18
2023-05-02T07:53:07.867Z,64.28
2023-05-02T07:55:35.422Z,64.16
2023-05-02T07:58:03.297Z,64.36
2023-05-02T08:00:33.841Z,64.32
2023-05-02T08:03:01.530Z,63.94
2023-05-02T08:05:30.538Z,63.82
2023-05-02T08:07:58.177Z,64.12
2023-05-02T08:10:25.690Z,63.60
2023-05-02T08:12:53.205Z,64.20
2023-05-02T08:15:20.856Z,64.02
2023-05-02T08:17:48.327Z,64.39
2023-05-02T08:20:15.836Z,64.28
2023-05-02T08:22:44.769Z,63.75
2023-05-02T08:25:12.261Z,62.91
2023-05-02T08:27:39.795Z,63.01
2023-05-02T08:30:09.013Z,61.76
2023-05-02T08:32:36.950Z,60.28
2023-05-02T08:35:04.646Z,61.82
2023-05-02T08:37:32.349Z,62.98
2023-05-02T08:40:01.613Z,62.88
2023-05-02T08:42:29.511Z,62.72
2023-05-02T08:44:57.054Z,61.66
2023-05-02T08:47:24.803Z,60.94
2023-05-02T08:49:52.562Z,61.73
2023-05-02T08:52:20.582Z,60.46
2023-05-02T08:54:48.029Z,60.14
2023-05-02T08:57:16.915Z,61.16
2023-05-02T08:59:44.379Z,60.50
2023-05-02T09:02:13.907Z,61.31
2023-05-02T09:04:44.000Z,61.25
2023-05-02T09:07:11.648Z,61.07
2023-05-02T09:09:39.161Z,60.75
2023-05-02T09:12:06.852Z,58.35
2023-05-02T09:14:35.860Z,60.48
2023-05-02T09:17:03.436Z,60.30
2023-05-02T09:19:31.216Z,60.63
2023-05-02T09:22:02.276Z,59.78
2023-05-02T09:24:29.936Z,58.69
2023-05-02T09:26:58.210Z,59.40
2023-05-02T09:29:25.885Z,59.48
2023-05-02T09:31:56.593Z,60.25
2023-05-02T09:34:24.567Z,59.23
2023-05-02T09:36:54.726Z,59.68
2023-05-02T09:39:25.506Z,58.00
2023-05-02T09:41:54.165Z,58.68
2023-05-02T09:44:23.700Z,59.20
2023-05-02T09:46:52.003Z,60.21
2023-05-02T09:49:21.191Z,59.78
2023-05-02T09:51:48.864Z,59.96
2023-05-02T09:54:16.874Z,60.22
2023-05-02T09:56:54.217Z,60.13
2023-05-02T09:59:21.709Z,59.28
2023-05-02T10:01:55.046Z,59.35
2023-05-02T10:04:24.156Z,57.43
2023-05-02T10:06:51.829Z,57.53
2023-05-02T10:09:22.185Z,58.73
2023-05-02T10:11:55.281Z,59.78
2023-05-02T10:14:27.808Z,56.56
2023-05-02T10:17:00.986Z,58.16
2023-05-02T10:19:31.134Z,57.81
2023-05-02T10:21:59.452Z,58.14
2023-05-02T10:24:26.994Z,58.83
2023-05-02T10:26:54.474Z,58.68
2023-05-02T10:29:21.997Z,58.88
2023-05-02T10:31:49.464Z,57.23
2023-05-02T10:34:17.112Z,59.37
2023-05-02T10:36:45.967Z,60.08
2023-05-02T10:39:13.455Z,60.11
2023-05-02T10:41:41.252Z,59.45
2023-05-02T10:44:08.781Z,59.38
2023-05-02T10:46:36.664Z,58.84
2023-05-02T10:49:05.033Z,58.29
2023-05-02T10:51:33.784Z,56.73
2023-05-02T10:54:21.683Z,59.58
2023-05-02T10:57:05.990Z,59.38
2023-05-02T10:59:34.649Z,60.04
2023-05-02T11:02:03.537Z,59.37
2023-05-02T11:04:51.701Z,60.18
2023-05-02T11:07:19.763Z,59.40
2023-05-02T11:09:48.671Z,59.60
2023-05-02T11:12:31.011Z,59.73
2023-05-02T11:14:59.375Z,59.70
2023-05-02T11:17:27.052Z,58.90
2023-05-02T11:20:27.530Z,57.97
2023-05-02T11:22:55.747Z,56.21
2023-05-02T11:25:34.339Z,58.96
2023-05-02T11:28:02.151Z,56.34
2023-05-02T11:30:43.642Z,56.04
2023-05-02T11:33:17.179Z,58.48
2023-05-02T11:35:48.759Z,58.15
2023-05-02T11:38:17.206Z,55.71
2023-05-02T11:40:53.027Z,58.59
2023-05-02T11:43:21.456Z,55.29
2023-05-02T11:45:49.103Z,55.46
2023-05-02T11:48:17.534Z,54.63
2023-05-02T11:50:49.541Z,55.46
2023-05-02T11:53:18.654Z,56.91
2023-05-02T11:55:46.917Z,58.41
2023-05-02T11:58:16.785Z,57.60
2023-05-02T12:00:46.868Z,57.85
2023-05-02T12:03:30.536Z,57.49
2023-05-02T12:05:58.556Z,58.04
2023-05-02T12:08:27.434Z,59.64
2023-05-02T12:10:55.336Z,56.86
2023-05-02T12:13:24.755Z,58.44
2023-05-02T12:15:53.249Z,57.12
2023-05-02T12:18:23.422Z,58.31
2023-05-02T12:20:51.878Z,57.25
2023-05-02T12:23:19.691Z,57.72
2023-05-02T12:25:47.245Z,58.59
2023-05-02T12:28:14.764Z,57.36
2023-05-02T12:30:43.966Z,58.16
2023-05-02T12:33:11.502Z,55.40
2023-05-02T12:35:39.102Z,56.93
2023-05-02T12:38:13.391Z,56.53
2023-05-02T12:40:47.177Z,57.68
2023-05-02T12:43:14.697Z,56.71
2023-05-02T12:45:43.858Z,58.30
2023-05-02T12:48:21.620Z,56.93
2023-05-02T12:50:49.357Z,57.99
2023-05-02T12:53:16.838Z,52.54
2023-05-02T12:55:44.807Z,56.43
2023-05-02T12:58:13.281Z,55.06
2023-05-02T13:00:49.597Z,54.28
2023-05-02T13:03:19.752Z,54.27
2023-05-02T13:05:47.353Z,55.78
2023-05-02T13:08:14.907Z,56.28
2023-05-02T13:10:42.418Z,56.83
2023-05-02T13:13:09.866Z,56.76
2023-05-02T13:15:37.395Z,54.85
2023-05-02T13:18:05.097Z,55.79
2023-05-02T13:20:34.016Z,56.68
2023-05-02T13:23:01.482Z,54.40
2023-05-02T13:25:29.024Z,55.67
2023-05-02T13:27:56.547Z,54.45
2023-05-02T13:30:24.130Z,55.49
2023-05-02T13:32:51.651Z,53.15
2023-05-02T13:35:19.378Z,55.02
2023-05-02T13:37:48.304Z,51.26
2023-05-02T13:40:15.957Z,49.48
2023-05-02T13:42:43.504Z,51.93
2023-05-02T13:45:11.532Z,52.69
2023-05-02T13:47:40.194Z,53.49
2023-05-02T13:50:09.556Z,51.06
2023-05-02T13:52:37.070Z,54.38
2023-05-02T13:55:06.821Z,52.51
2023-05-02T13:57:34.395Z,55.12
2023-05-02T14:00:02.118Z,53.27
2023-05-02T14:02:30.018Z,55.80
2023-05-02T14:04:57.649Z,51.01
2023-05-02T14:07:25.178Z,55.49
2023-05-02T14:09:52.660Z,56.37
2023-05-02T14:12:21.786Z,55.82
2023-05-02T14:14:49.421Z,52.15
2023-05-02T14:17:16.957Z,54.89
2023-05-02T14:19:44.441Z,55.80
2023-05-02T14:22:12.003Z,54.68
2023-05-02T14:24:39.550Z,52.37
2023-05-02T14:27:07.692Z,47.11
2023-05-02T14:29:36.680Z,50.99
2023-05-02T14:32:04.434Z,51.29
2023-05-02T14:34:31.969Z,51.88
2023-05-02T14:36:59.409Z,51.30
2023-05-02T14:39:27.630Z,54.66
2023-05-02T14:41:55.155Z,54.59
2023-05-02T14:44:22.662Z,55.31
2023-05-02T14:46:55.147Z,55.44
2023-05-02T14:49:22.649Z,50.81
2023-05-02T14:51:50.297Z,53.76
2023-05-02T14:54:17.891Z,51.04
2023-05-02T14:56:45.498Z,53.29
2023-05-02T14:59:12.999Z,54.21
2023-05-02T15:01:40.600Z,54.41
2023-05-02T15:04:09.881Z,54.48
2023-05-02T15:06:38.206Z,54.73
2023-05-02T15:09:05.964Z,56.64
2023-05-02T15:11:33.498Z,55.51
2023-05-02T15:14:01.041Z,55.59
2023-05-02T15:16:28.608Z,55.69
2023-05-02T15:18:56.413Z,54.75
2023-05-02T15:21:25.416Z,54.51
2023-05-02T15:23:53.022Z,55.60
2023-05-02T15:26:21.313Z,54.13
2023-05-02T15:28:48.861Z,52.38
2023-05-02T15:31:16.327Z,52.36
2023-05-02T15:33:43.838Z,53.94
2023-05-02T15:36:11.398Z,50.86
2023-05-02T15:38:42.678Z,53.39
2023-05-02T15:41:10.661Z,53.36
2023-05-02T15:43:38.350Z,55.84
2023-05-02T15:46:05.941Z,56.43
2023-05-02T15:48:34.877Z,55.80
2023-05-02T15:51:02.725Z,55.25
2023-05-02T15:53:30.452Z,55.78
2023-05-02T15:55:59.322Z,54.92
2023-05-02T15:58:26.847Z,56.00
2023-05-02T16:00:55.892Z,57.05
2023-05-02T16:03:23.635Z,54.11
2023-05-02T16:05:52.925Z,56.14
2023-05-02T16:08:20.633Z,57.49
2023-05-02T16:10:48.203Z,57.25
2023-05-02T16:13:17.175Z,56.86
2023-05-02T16:15:44.777Z,56.66
2023-05-02T16:18:12.476Z,56.97
2023-05-02T16:20:40.060Z,55.19
2023-05-02T16:23:07.591Z,53.96
2023-05-02T16:25:35.098Z,54.16
2023-05-02T16:28:02.882Z,53.59
2023-05-02T16:30:31.836Z,54.93
2023-05-02T16:32:59.444Z,56.46
2023-05-02T16:35:27.077Z,55.47
2023-05-02T16:37:54.606Z,56.09
2023-05-02T16:40:22.228Z,56.37
2023-05-02T16:42:49.778Z,55.54
2023-05-02T16:45:17.304Z,57.51
2023-05-02T16:47:46.605Z,56.48
2023-05-02T16:50:14.242Z,56.02
2023-05-02T16:52:41.790Z,56.51
2023-05-02T16:55:09.355Z,56.25
2023-05-02T16:57:36.851Z,57.79
2023-05-02T17:00:05.424Z,57.85
2023-05-02T17:02:33.322Z,53.57
2023-05-02T17:05:02.394Z,56.38
2023-05-02T17:07:29.887Z,56.16
2023-05-02T17:09:57.459Z,55.61
2023-05-02T17:12:25.760Z,54.73
2023-05-02T17:14:53.452Z,54.31
2023-05-02T17:17:23.377Z,55.32
2023-05-02T17:19:51.332Z,55.23
2023-05-02T17:22:20.613Z,50.98
2023-05-02T17:24:49.476Z,53.11
2023-05-02T17:27:17.149Z,51.60
2023-05-02T17:29:44.635Z,53.43
2023-05-02T17:32:14.672Z,51.59
2023-05-02T17:34:43.031Z,52.29
2023-05-02T17:37:10.644Z,53.93
2023-05-02T17:39:39.476Z,56.27
2023-05-02T17:42:07.075Z,56.34
2023-05-02T17:44:36.120Z,57.51
2023-05-02T17:47:03.705Z,56.85
2023-05-02T17:49:31.188Z,55.68
2023-05-02T17:51:58.649Z,56.98
2023-05-02T17:54:26.171Z,57.61
2023-05-02T17:56:55.515Z,55.80
2023-05-02T17:59:23.023Z,55.74
2023-05-02T18:01:51.111Z,56.43
2023-05-02T18:04:19.177Z,57.07
2023-05-02T18:06:46.818Z,57.00
2023-05-02T18:09:14.297Z,57.31
2023-05-02T18:11:41.921Z,57.36
2023-05-02T18:14:10.799Z,57.08
2023-05-02T18:16:38.766Z,56.82
2023-05-02T18:19:06.234Z,57.18
2023-05-02T18:21:35.517Z,56.96
2023-05-02T18:24:02.972Z,54.75
2023-05-02T18:26:30.975Z,56.60
2023-05-02T18:28:58.485Z,57.24
2023-05-02T18:31:27.512Z,56.84
2023-05-02T18:33:55.085Z,57.21
2023-05-02T18:36:25.008Z,55.66
2023-05-02T18:38:52.508Z,56.09
2023-05-02T18:41:20.026Z,56.86
2023-05-02T18:43:47.609Z,55.72
2023-05-02T18:46:15.206Z,56.25
2023-05-02T18:48:44.058Z,55.76
2023-05-02T18:51:11.600Z,56.87
2023-05-02T18:53:39.327Z,55.07
2023-05-02T18:56:12.498Z,55.95
2023-05-02T18:58:40.058Z,56.31
2023-05-02T19:01:12.420Z,56.71
2023-05-02T19:03:39.987Z,55.99
2023-05-02T19:06:09.013Z,57.56
2023-05-02T19:08:36.505Z,57.86
2023-05-02T19:11:04.604Z,57.71
2023-05-02T19:13:32.481Z,57.54
2023-05-02T19:16:00.909Z,57.48
2023-05-02T19:18:28.403Z,58.33
2023-05-02T19:20:55.893Z,58.15
2023-05-02T19:23:25.649Z,58.45
2023-05-02T19:25:53.182Z,58.28
2023-05-02T19:28:20.933Z,58.30
2023-05-02T19:30:48.379Z,57.91
2023-05-02T19:33:15.863Z,58.02
2023-05-02T19:35:43.387Z,58.21
2023-05-02T19:38:10.876Z,57.66
2023-05-02T19:40:39.780Z,58.06
2023-05-02T19:43:07.270Z,58.44
2023-05-02T19:45:35.145Z,58.76
2023-05-02T19:48:02.759Z,58.52
2023-05-02T19:50:30.284Z,58.38
2023-05-02T19:52:57.992Z,58.98
2023-05-02T19:55:25.471Z,57.89
2023-05-02T19:57:54.373Z,58.92
2023-05-02T20:00:21.913Z,59.30
2023-05-02T20:02:51.333Z,59.28
2023-05-02T20:05:19.434Z,59.47
2023-05-02T20:07:47.179Z,59.27
2023-05-02T20:10:14.831Z,59.60
2023-05-02T20:12:44.729Z,59.28
2023-05-02T20:15:13.774Z,59.54
2023-05-02T20:17:41.521Z,59.45
2023-05-02T20:20:11.344Z,59.75
2023-05-02T20:22:39.863Z,59.86
2023-05-02T20:25:08.066Z,59.72
2023-05-02T20:27:35.576Z,59.94
2023-05-02T20:30:03.353Z,60.12
2023-05-02T20:32:32.498Z,59.84
2023-05-02T20:35:00.016Z,60.13
2023-05-02T20:37:27.620Z,60.37
2023-05-02T20:39:55.114Z,60.33
2023-05-02T20:42:24.286Z,60.26
2023-05-02T20:44:55.772Z,60.16
2023-05-02T20:47:23.350Z,60.28
2023-05-02T20:49:52.306Z,60.56
2023-05-02T20:52:19.947Z,60.60
2023-05-02T20:54:47.703Z,60.79
2023-05-02T20:57:15.542Z,60.73
2023-05-02T20:59:43.664Z,60.77
2023-05-02T21:02:11.615Z,60.84
2023-05-02T21:04:39.195Z,60.87
2023-05-02T21:07:08.145Z,60.80
2023-05-02T21:09:35.710Z,60.92
2023-05-02T21:12:03.376Z,61.10
2023-05-02T21:14:30.884Z,60.89
2023-05-02T21:16:58.402Z,61.18
2023-05-02T21:19:25.979Z,61.18
2023-05-02T21:21:53.469Z,61.33
2023-05-02T21:24:22.381Z,61.19
2023-05-02T21:26:49.913Z,60.98
2023-05-02T21:29:17.427Z,61.13
2023-05-02T21:31:44.911Z,60.96
2023-05-02T21:34:12.446Z,61.06
2023-05-02T21:36:39.997Z,61.08
2023-05-02T21:39:07.686Z,61.00
2023-05-02T21:41:36.606Z,60.73
2023-05-02T21:44:04.426Z,61.01
2023-05-02T21:46:31.891Z,61.14
2023-05-02T21:48:59.433Z,61.07
2023-05-02T21:51:26.973Z,60.91
2023-05-02T21:53:54.712Z,60.85
2023-05-02T21:56:22.260Z,61.35
2023-05-02T21:58:51.333Z,61.32
2023-05-02T22:01:19.245Z,61.44
2023-05-02T22:03:46.898Z,61.48
2023-05-02T22:06:15.151Z,61.54
2023-05-02T22:08:42.886Z,61.56
2023-05-02T22:11:10.572Z,61.66
2023-05-02T22:13:38.134Z,61.79
2023-05-02T22:16:08.040Z,61.83
2023-05-02T22:18:35.719Z,61.82
2023-05-02T22:21:03.698Z,61.79
2023-05-02T22:23:31.467Z,62.04
2023-05-02T22:25:59.552Z,61.99
2023-05-02T22:28:27.108Z,61.86
2023-05-02T22:30:54.807Z,61.99
2023-05-02T22:33:23.760Z,62.29
2023-05-02T22:35:51.365Z,62.21
2023-05-02T22:38:20.381Z,62.34
2023-05-02T22:40:47.868Z,62.12
2023-05-02T22:43:15.722Z,62.15
2023-05-02T22:45:43.206Z,62.46
2023-05-02T22:48:10.691Z,62.32
2023-05-02T22:50:40.081Z,62.41
2023-05-02T22:53:09.387Z,62.55
2023-05-02T22:55:37.897Z,62.56
2023-05-02T22:58:05.388Z,62.64
2023-05-02T23:00:33.083Z,62.58
2023-05-02T23:03:00.712Z,62.74
2023-05-02T23:05:29.312Z,62.62
2023-05-02T23:07:58.175Z,62.82
2023-05-02T23:10:25.790Z,62.84
2023-05-02T23:12:53.322Z,62.79
2023-05-02T23:15:20.926Z,62.72
2023-05-02T23:17:48.621Z,62.70
2023-05-02T23:20:19.537Z,62.91
2023-05-02T23:22:48.918Z,62.74
2023-05-02T23:25:17.800Z,62.88
2023-05-02T23:27:45.680Z,62.86
2023-05-02T23:30:13.330Z,62.89
2023-05-02T23:32:40.957Z,62.71
2023-05-02T23:35:08.963Z,62.69
2023-05-02T23:37:36.534Z,62.96
2023-05-02T23:40:04.794Z,62.92
2023-05-02T23:42:34.320Z,62.76
2023-05-02T23:45:01.820Z,62.91
2023-05-02T23:47:29.354Z,62.83
2023-05-02T23:49:57.132Z,62.80
2023-05-02T23:52:24.713Z,63.06
2023-05-02T23:54:52.592Z,62.96
2023-05-02T23:57:20.040Z,63.03
2023-05-02T23:59:49.039Z,63.12
